createdAt,value
2022-11-29T00:02:31.587Z,9.08
2022-11-29T00:05:44.797Z,9.11
2022-11-29T00:08:50.556Z,9.30
2022-11-29T00:12:14.598Z,8.66
2022-11-29T00:15:20.117Z,7.23
2022-11-29T00:18:25.427Z,7.10
2022-11-29T00:21:31.824Z,7.89
2022-11-29T00:24:40.060Z,8.50
2022-11-29T00:27:45.425Z,8.88
2022-11-29T00:30:50.754Z,9.11
2022-11-29T00:33:57.241Z,9.14
2022-11-29T00:37:02.777Z,9.11
2022-11-29T00:40:09.593Z,8.11
2022-11-29T00:43:14.953Z,6.91
2022-11-29T00:46:23.897Z,7.07
2022-11-29T00:49:29.494Z,7.85
2022-11-29T00:52:35.175Z,8.28
2022-11-29T00:55:40.737Z,8.60
2022-11-29T00:58:46.191Z,8.83
2022-11-29T01:01:51.712Z,9.01
2022-11-29T01:04:57.391Z,9.16
2022-11-29T01:08:02.735Z,8.78
2022-11-29T01:11:10.093Z,7.46
2022-11-29T01:14:15.545Z,6.44
2022-11-29T01:17:20.965Z,6.72
2022-11-29T01:20:26.806Z,7.53
2022-11-29T01:23:32.561Z,7.97
2022-11-29T01:26:37.933Z,8.34
2022-11-29T01:29:43.431Z,8.75
2022-11-29T01:32:48.754Z,9.09
2022-11-29T01:35:55.586Z,9.28
2022-11-29T01:39:01.902Z,8.85
2022-11-29T01:42:07.283Z,7.39
2022-11-29T01:45:20.053Z,6.50
2022-11-29T01:48:27.424Z,7.07
2022-11-29T01:51:34.539Z,7.81
2022-11-29T01:54:43.690Z,8.35
2022-11-29T01:57:49.434Z,8.59
2022-11-29T02:00:57.021Z,8.78
2022-11-29T02:04:02.781Z,8.99
2022-11-29T02:07:08.459Z,9.15
2022-11-29T02:10:14.413Z,8.59
2022-11-29T02:13:25.250Z,7.26
2022-11-29T02:16:35.524Z,6.27
2022-11-29T02:19:55.016Z,6.70
2022-11-29T02:23:06.635Z,7.40
2022-11-29T02:26:21.680Z,7.84
2022-11-29T02:29:52.648Z,8.11
2022-11-29T02:33:11.107Z,8.38
2022-11-29T02:36:25.255Z,8.66
2022-11-29T02:39:45.076Z,8.74
2022-11-29T02:43:06.978Z,8.79
2022-11-29T02:46:22.151Z,8.83
2022-11-29T02:49:36.026Z,7.69
2022-11-29T02:52:46.293Z,6.91
2022-11-29T02:55:56.424Z,7.45
2022-11-29T02:59:04.655Z,7.93
2022-11-29T03:02:15.565Z,8.21
2022-11-29T03:05:26.438Z,8.41
2022-11-29T03:08:36.186Z,8.48
2022-11-29T03:11:47.223Z,8.56
2022-11-29T03:14:56.874Z,8.52
2022-11-29T03:18:11.618Z,8.60
2022-11-29T03:21:20.283Z,8.63
2022-11-29T03:24:29.997Z,8.58
2022-11-29T03:27:38.081Z,8.57
2022-11-29T03:30:45.616Z,8.68
2022-11-29T03:33:54.659Z,8.27
2022-11-29T03:37:04.868Z,6.95
2022-11-29T03:40:12.799Z,6.76
2022-11-29T03:43:21.732Z,7.30
2022-11-29T03:46:30.419Z,7.74
2022-11-29T03:49:39.048Z,8.07
2022-11-29T03:52:49.362Z,8.14
2022-11-29T03:55:56.499Z,8.16
2022-11-29T03:59:11.689Z,8.41
2022-11-29T04:02:29.158Z,8.47
2022-11-29T04:05:42.640Z,8.21
2022-11-29T04:08:56.213Z,6.91
2022-11-29T04:12:16.982Z,6.18
2022-11-29T04:15:39.689Z,6.86
2022-11-29T04:18:59.893Z,7.34
2022-11-29T04:22:18.348Z,7.67
2022-11-29T04:25:39.582Z,7.94
2022-11-29T04:29:01.551Z,8.01
2022-11-29T04:32:18.727Z,8.25
2022-11-29T04:35:30.772Z,8.25
2022-11-29T04:38:48.220Z,8.32
2022-11-29T04:42:04.304Z,8.29
2022-11-29T04:45:34.373Z,8.26
2022-11-29T04:48:52.840Z,8.40
2022-11-29T04:52:11.280Z,8.39
2022-11-29T04:55:34.086Z,7.00
2022-11-29T04:58:42.480Z,6.72
2022-11-29T05:01:55.647Z,7.31
2022-11-29T05:05:05.734Z,7.59
2022-11-29T05:08:20.514Z,7.93
2022-11-29T05:11:30.798Z,8.12
2022-11-29T05:14:43.279Z,8.39
2022-11-29T05:17:56.429Z,8.39
2022-11-29T05:21:07.372Z,7.20
2022-11-29T05:24:19.069Z,6.25
2022-11-29T05:27:33.313Z,6.68
2022-11-29T05:30:48.233Z,7.19
2022-11-29T05:34:07.025Z,7.47
2022-11-29T05:37:19.978Z,7.79
2022-11-29T05:40:40.791Z,8.07
2022-11-29T05:43:49.711Z,8.15
2022-11-29T05:46:59.854Z,7.30
2022-11-29T05:50:11.173Z,6.36
2022-11-29T05:53:23.259Z,6.85
2022-11-29T05:56:35.534Z,7.37
2022-11-29T05:59:42.505Z,7.68
2022-11-29T06:02:52.473Z,7.91
2022-11-29T06:06:00.763Z,8.04
2022-11-29T06:09:12.567Z,8.17
2022-11-29T06:12:21.353Z,7.18
2022-11-29T06:15:38.671Z,6.12
2022-11-29T06:18:54.866Z,6.61
2022-11-29T06:22:09.789Z,7.18
2022-11-29T06:25:21.749Z,7.56
2022-11-29T06:28:34.226Z,7.81
2022-11-29T06:31:44.619Z,7.91
2022-11-29T06:34:55.679Z,7.60
2022-11-29T06:38:04.551Z,6.32
2022-11-29T06:41:15.007Z,6.01
2022-11-29T06:44:21.478Z,6.59
2022-11-29T06:47:31.697Z,6.93
2022-11-29T06:50:46.952Z,7.30
2022-11-29T06:53:57.474Z,7.56
2022-11-29T06:57:07.418Z,7.66
2022-11-29T07:00:17.286Z,7.65
2022-11-29T07:03:40.460Z,7.64
2022-11-29T07:06:48.587Z,7.85
2022-11-29T07:09:59.807Z,6.96
2022-11-29T07:13:06.055Z,6.20
2022-11-29T07:16:15.239Z,6.60
2022-11-29T07:19:26.809Z,6.94
2022-11-29T07:22:42.307Z,7.18
2022-11-29T07:25:54.266Z,7.46
2022-11-29T07:29:08.888Z,7.64
2022-11-29T07:32:21.745Z,7.75
2022-11-29T07:35:30.934Z,6.98
2022-11-29T07:38:51.016Z,6.01
2022-11-29T07:42:01.164Z,6.54
2022-11-29T07:45:13.924Z,7.04
2022-11-29T07:48:19.609Z,7.22
2022-11-29T07:51:25.062Z,7.27
2022-11-29T07:54:31.243Z,7.35
2022-11-29T07:57:36.992Z,7.50
2022-11-29T08:00:43.244Z,7.65
2022-11-29T08:03:51.052Z,7.84
2022-11-29T08:06:58.800Z,6.85
2022-11-29T08:10:04.849Z,5.83
2022-11-29T08:13:10.291Z,6.40
2022-11-29T08:16:18.696Z,6.99
2022-11-29T08:19:24.140Z,7.24
2022-11-29T08:22:29.580Z,7.50
2022-11-29T08:25:45.367Z,7.63
2022-11-29T08:28:53.174Z,7.70
2022-11-29T08:31:59.108Z,7.71
2022-11-29T08:35:04.525Z,7.77
2022-11-29T08:38:09.894Z,7.77
2022-11-29T08:41:16.287Z,7.82
2022-11-29T08:44:21.795Z,6.67
2022-11-29T08:47:39.313Z,6.12
2022-11-29T08:50:44.880Z,6.52
2022-11-29T08:53:51.839Z,6.83
2022-11-29T08:57:37.405Z,7.15
2022-11-29T09:00:23.152Z,7.47
2022-11-29T09:03:45.932Z,7.56
2022-11-29T09:06:51.586Z,7.68
2022-11-29T09:09:56.995Z,8.02
2022-11-29T09:13:02.471Z,7.47
2022-11-29T09:16:09.510Z,6.32
2022-11-29T09:19:15.571Z,6.58
2022-11-29T09:22:21.950Z,7.04
2022-11-29T09:25:27.208Z,7.41
2022-11-29T09:28:34.364Z,7.74
2022-11-29T09:31:39.721Z,7.77
2022-11-29T09:34:46.472Z,7.88
2022-11-29T09:37:52.132Z,7.86
2022-11-29T09:40:59.049Z,6.77
2022-11-29T09:44:10.103Z,6.04
2022-11-29T09:47:21.571Z,6.63
2022-11-29T09:50:29.720Z,7.30
2022-11-29T09:53:44.839Z,7.66
2022-11-29T09:56:51.503Z,7.95
2022-11-29T09:59:59.255Z,8.23
2022-11-29T10:03:11.043Z,8.14
2022-11-29T10:06:20.372Z,6.87
2022-11-29T10:09:33.672Z,6.45
2022-11-29T10:12:42.675Z,7.14
2022-11-29T10:15:51.501Z,7.56
2022-11-29T10:18:59.880Z,7.78
2022-11-29T10:22:06.771Z,8.17
2022-11-29T10:25:17.955Z,7.90
2022-11-29T10:28:25.986Z,6.58
2022-11-29T10:31:33.985Z,6.68
2022-11-29T10:34:39.951Z,7.37
2022-11-29T10:38:01.582Z,7.75
2022-11-29T10:41:13.386Z,8.05
2022-11-29T10:44:18.808Z,7.74
2022-11-29T10:47:24.365Z,6.52
2022-11-29T10:50:30.978Z,6.24
2022-11-29T10:53:38.594Z,6.93
2022-11-29T10:56:44.938Z,7.52
2022-11-29T11:00:01.166Z,7.79
2022-11-29T11:03:17.376Z,7.95
2022-11-29T11:06:23.919Z,8.18
2022-11-29T11:09:32.314Z,7.19
2022-11-29T11:12:37.992Z,6.28
2022-11-29T11:15:43.428Z,6.82
2022-11-29T11:18:49.067Z,7.35
2022-11-29T11:21:54.730Z,7.77
2022-11-29T11:25:02.218Z,8.09
2022-11-29T11:28:18.132Z,8.14
2022-11-29T11:31:32.620Z,7.18
2022-11-29T11:34:38.970Z,6.37
2022-11-29T11:37:57.231Z,6.96
2022-11-29T11:41:08.229Z,7.78
2022-11-29T11:44:52.554Z,8.24
2022-11-29T11:47:50.008Z,8.46
2022-11-29T11:50:57.211Z,7.58
2022-11-29T11:54:03.012Z,6.63
2022-11-29T11:57:17.231Z,7.10
2022-11-29T12:01:02.284Z,7.75
2022-11-29T12:04:04.624Z,8.08
2022-11-29T12:07:19.015Z,8.21
2022-11-29T12:10:26.463Z,7.29
2022-11-29T12:13:34.803Z,6.34
2022-11-29T12:16:41.518Z,6.46
2022-11-29T12:19:54.133Z,7.43
2022-11-29T12:23:19.901Z,8.11
2022-11-29T12:26:56.027Z,8.34
2022-11-29T12:29:52.601Z,7.39
2022-11-29T12:33:03.772Z,6.74
2022-11-29T12:36:15.164Z,7.36
2022-11-29T12:39:46.358Z,8.00
2022-11-29T12:42:56.240Z,8.05
2022-11-29T12:46:05.900Z,6.93
2022-11-29T12:49:17.320Z,6.36
2022-11-29T12:52:28.215Z,7.11
2022-11-29T12:55:41.588Z,7.83
2022-11-29T12:58:54.950Z,8.16
2022-11-29T13:02:05.727Z,7.31
2022-11-29T13:05:15.823Z,6.44
2022-11-29T13:08:29.581Z,7.04
2022-11-29T13:11:37.192Z,7.86
2022-11-29T13:14:49.577Z,8.32
2022-11-29T13:17:59.419Z,7.86
2022-11-29T13:21:08.986Z,6.69
2022-11-29T13:24:18.878Z,6.66
2022-11-29T13:27:26.197Z,7.44
2022-11-29T13:30:31.707Z,8.06
2022-11-29T13:33:43.853Z,8.09
2022-11-29T13:36:55.082Z,6.81
2022-11-29T13:40:06.955Z,6.16
2022-11-29T13:43:19.407Z,7.02
2022-11-29T13:46:29.310Z,7.58
2022-11-29T13:50:04.631Z,7.69
2022-11-29T13:53:15.497Z,7.65
2022-11-29T13:56:34.049Z,6.62
2022-11-29T13:59:47.412Z,6.51
2022-11-29T14:02:55.209Z,7.17
2022-11-29T14:06:11.159Z,7.62
2022-11-29T14:09:28.922Z,7.89
2022-11-29T14:12:39.362Z,6.78
2022-11-29T14:15:45.012Z,6.30
2022-11-29T14:19:05.485Z,7.06
2022-11-29T14:22:31.494Z,7.60
2022-11-29T14:25:53.112Z,7.58
2022-11-29T14:28:59.726Z,6.53
2022-11-29T14:32:05.323Z,5.70
2022-11-29T14:35:15.702Z,6.18
2022-11-29T14:38:30.706Z,6.68
2022-11-29T14:41:44.867Z,7.10
2022-11-29T14:44:52.318Z,7.51
2022-11-29T14:47:58.415Z,7.75
2022-11-29T14:51:11.094Z,6.97
2022-11-29T14:54:18.471Z,6.06
2022-11-29T14:57:41.499Z,6.71
2022-11-29T15:01:10.988Z,7.41
2022-11-29T15:04:16.904Z,7.88
2022-11-29T15:07:26.074Z,7.63
2022-11-29T15:10:32.870Z,6.29
2022-11-29T15:13:40.285Z,6.11
2022-11-29T15:17:00.596Z,6.87
2022-11-29T15:20:23.366Z,7.26
2022-11-29T15:23:28.933Z,7.37
2022-11-29T15:26:37.252Z,7.61
2022-11-29T15:29:48.289Z,7.02
2022-11-29T15:32:57.050Z,5.97
2022-11-29T15:36:06.739Z,6.47
2022-11-29T15:39:26.377Z,7.22
2022-11-29T15:42:41.852Z,7.75
2022-11-29T15:45:51.212Z,7.40
2022-11-29T15:48:57.493Z,6.21
2022-11-29T15:52:06.366Z,6.32
2022-11-29T15:55:14.031Z,6.97
2022-11-29T15:58:23.301Z,7.28
2022-11-29T16:01:28.906Z,7.42
2022-11-29T16:04:35.021Z,7.58
2022-11-29T16:07:40.976Z,7.13
2022-11-29T16:10:49.518Z,5.98
2022-11-29T16:14:03.730Z,6.40
2022-11-29T16:17:10.364Z,6.97
2022-11-29T16:20:26.782Z,7.29
2022-11-29T16:23:35.825Z,7.35
2022-11-29T16:26:43.373Z,7.55
2022-11-29T16:29:49.507Z,6.79
2022-11-29T16:32:56.452Z,6.02
2022-11-29T16:36:13.303Z,6.63
2022-11-29T16:39:23.746Z,7.13
2022-11-29T16:42:30.329Z,7.49
2022-11-29T16:45:36.621Z,7.54
2022-11-29T16:48:42.418Z,7.56
2022-11-29T16:51:49.126Z,6.59
2022-11-29T16:54:55.009Z,5.72
2022-11-29T16:58:00.710Z,6.33
2022-11-29T17:01:18.306Z,7.03
2022-11-29T17:04:41.281Z,7.44
2022-11-29T17:07:47.640Z,7.67
2022-11-29T17:10:53.418Z,7.49
2022-11-29T17:13:58.857Z,6.31
2022-11-29T17:17:07.354Z,6.03
2022-11-29T17:20:15.371Z,6.67
2022-11-29T17:23:20.718Z,7.24
2022-11-29T17:26:26.156Z,7.62
2022-11-29T17:29:31.691Z,7.88
2022-11-29T17:32:37.097Z,7.88
2022-11-29T17:35:42.795Z,6.79
2022-11-29T17:38:50.686Z,6.04
2022-11-29T17:41:56.353Z,6.68
2022-11-29T17:45:01.935Z,7.34
2022-11-29T17:48:07.757Z,7.76
2022-11-29T17:51:43.667Z,7.71
2022-11-29T17:54:39.124Z,6.48
2022-11-29T17:57:44.502Z,6.31
2022-11-29T18:00:49.894Z,7.16
2022-11-29T18:03:57.845Z,7.69
2022-11-29T18:07:03.367Z,7.89
2022-11-29T18:10:10.513Z,7.47
2022-11-29T18:13:16.219Z,6.24
2022-11-29T18:16:23.309Z,5.78
2022-11-29T18:19:29.918Z,6.59
2022-11-29T18:22:35.373Z,7.12
2022-11-29T18:25:41.324Z,7.50
2022-11-29T18:28:47.068Z,7.90
2022-11-29T18:31:52.482Z,8.10
2022-11-29T18:34:58.847Z,8.18
2022-11-29T18:38:15.216Z,7.02
2022-11-29T18:41:22.467Z,5.92
2022-11-29T18:44:29.553Z,6.54
2022-11-29T18:47:35.492Z,7.56
2022-11-29T18:50:44.428Z,8.10
2022-11-29T18:53:50.025Z,8.46
2022-11-29T18:56:55.609Z,8.01
2022-11-29T19:00:03.369Z,6.61
2022-11-29T19:03:10.737Z,5.67
2022-11-29T19:06:17.009Z,6.25
2022-11-29T19:09:23.332Z,7.08
2022-11-29T19:12:29.050Z,7.63
2022-11-29T19:15:34.749Z,7.92
2022-11-29T19:18:40.292Z,8.24
2022-11-29T19:21:45.904Z,8.52
2022-11-29T19:24:51.934Z,7.58
2022-11-29T19:27:58.650Z,6.26
2022-11-29T19:31:05.469Z,5.43
2022-11-29T19:34:12.193Z,6.02
2022-11-29T19:37:17.753Z,6.85
2022-11-29T19:40:23.361Z,7.35
2022-11-29T19:43:29.065Z,7.67
2022-11-29T19:46:35.845Z,7.86
2022-11-29T19:49:46.151Z,7.97
2022-11-29T19:52:52.482Z,7.93
2022-11-29T19:55:58.378Z,6.86
2022-11-29T19:59:03.832Z,5.84
2022-11-29T20:02:10.558Z,6.20
2022-11-29T20:05:16.190Z,6.90
2022-11-29T20:08:21.802Z,7.62
2022-11-29T20:11:27.287Z,7.88
2022-11-29T20:14:32.858Z,8.35
2022-11-29T20:17:38.350Z,8.12
2022-11-29T20:20:43.837Z,6.80
2022-11-29T20:23:49.249Z,5.88
2022-11-29T20:26:56.799Z,6.55
2022-11-29T20:30:02.215Z,7.35
2022-11-29T20:33:07.867Z,7.75
2022-11-29T20:36:21.097Z,7.99
2022-11-29T20:39:31.716Z,8.10
2022-11-29T20:42:45.028Z,7.03
2022-11-29T20:45:50.930Z,5.80
2022-11-29T20:48:59.397Z,5.62
2022-11-29T20:52:12.421Z,6.59
2022-11-29T20:55:18.327Z,7.34
2022-11-29T20:58:23.828Z,7.80
2022-11-29T21:01:29.254Z,8.07
2022-11-29T21:04:34.585Z,7.41
2022-11-29T21:07:40.024Z,6.16
2022-11-29T21:10:45.774Z,6.50
2022-11-29T21:13:51.532Z,7.36
2022-11-29T21:16:57.556Z,8.03
2022-11-29T21:20:06.576Z,8.39
2022-11-29T21:23:15.496Z,8.68
2022-11-29T21:26:22.196Z,8.22
2022-11-29T21:29:28.170Z,6.89
2022-11-29T21:32:34.396Z,5.77
2022-11-29T21:35:41.820Z,5.41
2022-11-29T21:38:55.097Z,6.41
2022-11-29T21:42:00.875Z,7.46
2022-11-29T21:45:14.613Z,8.05
2022-11-29T21:48:40.528Z,8.44
2022-11-29T21:51:46.353Z,8.87
2022-11-29T21:54:51.781Z,8.99
2022-11-29T21:57:57.649Z,7.90
2022-11-29T22:01:08.522Z,6.51
2022-11-29T22:04:14.022Z,5.70
2022-11-29T22:07:19.677Z,6.51
2022-11-29T22:10:25.035Z,7.56
2022-11-29T22:13:30.517Z,8.03
2022-11-29T22:16:35.989Z,8.49
2022-11-29T22:19:41.486Z,8.84
2022-11-29T22:22:48.613Z,8.63
2022-11-29T22:25:53.884Z,7.28
2022-11-29T22:28:59.229Z,6.07
2022-11-29T22:32:04.736Z,6.07
2022-11-29T22:35:10.578Z,7.11
2022-11-29T22:38:15.833Z,7.68
2022-11-29T22:41:21.314Z,8.10
2022-11-29T22:44:27.013Z,8.43
2022-11-29T22:47:32.409Z,8.18
2022-11-29T22:50:37.684Z,6.86
2022-11-29T22:53:49.115Z,5.79
2022-11-29T22:56:54.558Z,6.23
2022-11-29T22:59:59.985Z,7.29
2022-11-29T23:03:05.320Z,8.26
2022-11-29T23:06:11.572Z,8.78
2022-11-29T23:09:19.898Z,8.72
2022-11-29T23:12:25.315Z,7.22
2022-11-29T23:15:30.735Z,5.99
2022-11-29T23:18:36.295Z,6.21
2022-11-29T23:21:42.091Z,7.13
2022-11-29T23:24:47.518Z,7.68
2022-11-29T23:27:55.219Z,7.97
2022-11-29T23:31:00.721Z,8.18
2022-11-29T23:34:06.744Z,8.34
2022-11-29T23:37:13.419Z,8.35
2022-11-29T23:40:18.774Z,7.39
2022-11-29T23:43:24.422Z,6.16
2022-11-29T23:46:29.941Z,5.28
2022-11-29T23:49:35.812Z,5.60
2022-11-29T23:52:41.190Z,6.72
2022-11-29T23:55:48.039Z,7.26
2022-11-29T23:58:53.471Z,7.40
